Pakistan

Resources for Pakistan vACC

Active Sector File
OPXX-Install-Package_20191216082722-191301-0001.zip | Release Date 12/16/2019 | Downloads 8 | File Size 12.30 MB

Archive Sector File
OPXX-Install-Package_20191107175800-191201-0001.zip | Release Date 11/7/2019 | Downloads 18 | File Size 12.31 MB
OPXX-Install-Package_20190914101214-191001-0001.zip | Release Date 9/14/2019 | Downloads 21 | File Size 12.27 MB
OPXX-Install-Package_20190721194721-190801-0001.zip | Release Date 7/21/2019 | Downloads 15 | File Size 12.24 MB

VATSIM Metar for Pakistan
OPST 221100Z 31010KT 6000 NSC 18/06 Q1021 NOSIG RH45
OPMT 221130Z 36004KT 6000 FU NSC 18/08 Q1022 NOSIG
OPLA 221125Z 31008KT 6000 FEW200 18/06 Q1021 RMK QFE995 RMK A30.14
OPSK 221100Z 05004KT 4000 HZ NSC 20/10 Q1020 NOSIG
OPKC 221125Z 03017KT 4000 BLDU NSC 23/04 Q1020 TEMPO 05015G25KT
OPIS 221125Z 28012KT 6000 FEW040 13/05 Q1022 TEMPO 27010G20KT
OPNH 221100Z 36010KT 4000 FU NSC 23/03 Q1022 NOSIG
OPPS 221130Z 36010KT 7000 HZ FEW040 16/04 Q1023